TimePDT,TemperatureF,Dew PointF,Humidity,Sea Level PressureIn,VisibilityMPH,Wind Direction,Wind SpeedMPH,Gust SpeedMPH,PrecipitationIn,Events,Conditions,WindDirDegrees,DateUTC
12:58 AM,52.9,28.0,38,29.73,10.0,SSW,18.4,-,N/A,,Clear,200,2014-04-02 07:58:00
1:58 AM,51.8,28.4,41,29.73,10.0,SSW,18.4,-,N/A,,Clear,200,2014-04-02 08:58:00
2:58 AM,51.1,28.4,42,29.73,10.0,South,11.5,-,N/A,,Clear,180,2014-04-02 09:58:00
3:58 AM,50.2,29.3,45,29.72,10.0,South,18.4,-,N/A,,Clear,190,2014-04-02 10:58:00
5:58 AM,49.3,28.4,45,29.74,10.0,South,15.0,-,N/A,,Scattered Clouds,180,2014-04-02 12:58:00
6:58 AM,49.8,29.3,45,29.76,10.0,South,11.5,-,N/A,,Partly Cloudy,190,2014-04-02 13:58:00
7:58 AM,51.1,30.0,44,29.77,10.0,South,15.0,-,N/A,,Mostly Cloudy,180,2014-04-02 14:58:00
8:58 AM,52.0,29.5,42,29.78,10.0,SSW,11.5,-,N/A,,Clear,200,2014-04-02 15:58:00
9:58 AM,53.6,28.4,38,29.81,10.0,SSW,9.2,-,N/A,,Mostly Cloudy,210,2014-04-02 16:58:00
10:58 AM,55.2,28.2,36,29.81,10.0,Variable,5.8,-,N/A,,Overcast,0,2014-04-02 17:58:00
11:55 AM,57.7,26.8,31,29.85,10.0,NW,5.8,-,N/A,,Overcast,320,2014-04-02 18:55:00
12:55 PM,57.2,31.8,38,29.85,10.0,WNW,20.7,32.2,N/A,,Mostly Cloudy,290,2014-04-02 19:55:00
1:55 PM,57.6,32.7,39,29.85,10.0,West,19.6,25.3,N/A,,Clear,280,2014-04-02 20:55:00
2:55 PM,58.1,30.0,34,29.84,10.0,West,11.5,-,N/A,,Clear,260,2014-04-02 21:55:00
3:55 PM,57.2,30.2,36,29.83,7.0,NNW,27.6,34.5,N/A,,Mostly Cloudy,330,2014-04-02 22:55:00
4:55 PM,52.5,32.7,47,29.89,10.0,WNW,18.4,24.2,0.00,,Mostly Cloudy,290,2014-04-02 23:55:00
5:12 PM,51.8,32.0,47,29.86,10.0,WNW,20.7,25.3,N/A,,Mostly Cloudy,290,2014-04-03 00:12:00
5:58 PM,52.5,32.5,47,29.85,10.0,SW,8.1,-,N/A,,Clear,220,2014-04-03 00:58:00
6:58 PM,52.3,32.9,48,29.86,10.0,South,6.9,-,N/A,,Clear,190,2014-04-03 01:58:00
7:58 PM,51.8,30.7,45,29.88,10.0,South,5.8,-,N/A,,Clear,170,2014-04-03 02:58:00
8:58 PM,51.6,31.1,45,29.90,10.0,South,3.5,-,N/A,,Partly Cloudy,180,2014-04-03 03:58:00
9:58 PM,49.8,33.6,54,29.92,10.0,NE,6.9,-,N/A,,Mostly Cloudy,40,2014-04-03 04:58:00
10:58 PM,48.4,33.1,56,29.94,10.0,NE,8.1,-,N/A,,Clear,50,2014-04-03 05:58:00
11:58 PM,46.0,32.7,60,29.95,10.0,NE,6.9,-,N/A,,Clear,40,2014-04-03 06:58:00